sensor_id;sensor_type;location;lat;lon;timestamp;pressure;altitude;pressure_sealevel;temperature;humidity
13312;BME280;34033;48.672;9.376;2023-04-22T00:01:19;97878.25;;;14.59;72.45
13312;BME280;34033;48.672;9.376;2023-04-22T00:03:45;97870.66;;;14.56;72.58
13312;BME280;34033;48.672;9.376;2023-04-22T00:06:10;97867.94;;;14.52;72.45
13312;BME280;34033;48.672;9.376;2023-04-22T00:08:36;97879.97;;;14.53;72.83
13312;BME280;34033;48.672;9.376;2023-04-22T00:11:02;97872.69;;;14.55;72.97
13312;BME280;34033;48.672;9.376;2023-04-22T00:13:27;97879.09;;;14.56;72.86
13312;BME280;34033;48.672;9.376;2023-04-22T00:15:53;97876.75;;;14.54;73.37
13312;BME280;34033;48.672;9.376;2023-04-22T00:18:18;97865.53;;;14.51;73.05
13312;BME280;34033;48.672;9.376;2023-04-22T00:20:44;97877.59;;;14.51;73.33
13312;BME280;34033;48.672;9.376;2023-04-22T00:23:10;97870.38;;;14.50;73.12
13312;BME280;34033;48.672;9.376;2023-04-22T00:25:36;97873.25;;;14.47;73.19
13312;BME280;34033;48.672;9.376;2023-04-22T00:28:01;97873.75;;;14.42;73.62
13312;BME280;34033;48.672;9.376;2023-04-22T00:30:26;97866.53;;;14.41;73.90
13312;BME280;34033;48.672;9.376;2023-04-22T00:32:52;97860.91;;;14.41;73.82
13312;BME280;34033;48.672;9.376;2023-04-22T00:35:17;97865.81;;;14.37;74.25
13312;BME280;34033;48.672;9.376;2023-04-22T00:37:43;97863.81;;;14.37;73.66
13312;BME280;34033;48.672;9.376;2023-04-22T00:40:08;97862.59;;;14.35;73.52
13312;BME280;34033;48.672;9.376;2023-04-22T00:42:36;97863.81;;;14.34;72.88
13312;BME280;34033;48.672;9.376;2023-04-22T00:45:01;97870.72;;;14.29;72.38
13312;BME280;34033;48.672;9.376;2023-04-22T00:47:26;97873.19;;;14.27;71.76
13312;BME280;34033;48.672;9.376;2023-04-22T00:49:54;97874.03;;;14.24;71.31
13312;BME280;34033;48.672;9.376;2023-04-22T00:52:19;97871.22;;;14.24;71.31
13312;BME280;34033;48.672;9.376;2023-04-22T00:54:44;97873.25;;;14.24;71.41
13312;BME280;34033;48.672;9.376;2023-04-22T00:57:11;97876.06;;;14.24;71.54
13312;BME280;34033;48.672;9.376;2023-04-22T00:59:36;97870.09;;;14.22;71.18
13312;BME280;34033;48.672;9.376;2023-04-22T01:02:02;97874.94;;;14.17;71.07
13312;BME280;34033;48.672;9.376;2023-04-22T01:04:28;97879.06;;;14.13;71.69
13312;BME280;34033;48.672;9.376;2023-04-22T01:06:54;97860.59;;;14.12;71.08
13312;BME280;34033;48.672;9.376;2023-04-22T01:09:19;97874.34;;;14.06;70.88
13312;BME280;34033;48.672;9.376;2023-04-22T01:11:45;97869.22;;;14.01;71.41
13312;BME280;34033;48.672;9.376;2023-04-22T01:14:11;97863.25;;;13.99;71.99
13312;BME280;34033;48.672;9.376;2023-04-22T01:16:37;97866.84;;;14.00;71.88
13312;BME280;34033;48.672;9.376;2023-04-22T01:19:04;97858.84;;;13.98;72.23
13312;BME280;34033;48.672;9.376;2023-04-22T01:21:29;97867.75;;;13.93;72.15
13312;BME280;34033;48.672;9.376;2023-04-22T01:23:58;97869.44;;;13.87;72.37
13312;BME280;34033;48.672;9.376;2023-04-22T01:26:24;97875.88;;;13.88;72.48
13312;BME280;34033;48.672;9.376;2023-04-22T01:28:50;97873.53;;;13.83;72.59
13312;BME280;34033;48.672;9.376;2023-04-22T01:31:15;97866.34;;;13.82;73.04
13312;BME280;34033;48.672;9.376;2023-04-22T01:33:40;97878.72;;;13.84;72.87
13312;BME280;34033;48.672;9.376;2023-04-22T01:36:06;97875.06;;;13.87;72.92
13312;BME280;34033;48.672;9.376;2023-04-22T01:38:33;97881.06;;;13.89;72.74
13312;BME280;34033;48.672;9.376;2023-04-22T01:41:00;97883.88;;;13.89;72.98
13312;BME280;34033;48.672;9.376;2023-04-22T01:43:26;97880.81;;;13.80;72.93
13312;BME280;34033;48.672;9.376;2023-04-22T01:45:52;97880.88;;;13.76;73.02
13312;BME280;34033;48.672;9.376;2023-04-22T01:48:18;97887.69;;;13.75;73.12
13312;BME280;34033;48.672;9.376;2023-04-22T01:50:43;97882.94;;;13.72;73.46
13312;BME280;34033;48.672;9.376;2023-04-22T01:53:09;97892.13;;;13.73;73.00
13312;BME280;34033;48.672;9.376;2023-04-22T01:55:35;97881.28;;;13.75;73.55
13312;BME280;34033;48.672;9.376;2023-04-22T01:58:02;97881.66;;;13.77;73.34
13312;BME280;34033;48.672;9.376;2023-04-22T02:00:27;97886.06;;;13.78;73.41
13312;BME280;34033;48.672;9.376;2023-04-22T02:02:53;97887.69;;;13.75;73.10
13312;BME280;34033;48.672;9.376;2023-04-22T02:05:18;97892.53;;;13.75;72.85
13312;BME280;34033;48.672;9.376;2023-04-22T02:07:43;97886.19;;;13.67;72.87
13312;BME280;34033;48.672;9.376;2023-04-22T02:10:09;97882.31;;;13.61;72.58
13312;BME280;34033;48.672;9.376;2023-04-22T02:12:35;97885.53;;;13.60;73.19
13312;BME280;34033;48.672;9.376;2023-04-22T02:15:01;97888.34;;;13.60;73.70
13312;BME280;34033;48.672;9.376;2023-04-22T02:17:27;97888.81;;;13.55;73.41
13312;BME280;34033;48.672;9.376;2023-04-22T02:19:53;97889.72;;;13.48;73.53
13312;BME280;34033;48.672;9.376;2023-04-22T02:22:18;97893.41;;;13.42;74.41
13312;BME280;34033;48.672;9.376;2023-04-22T02:24:44;97902.25;;;13.40;74.44
13312;BME280;34033;48.672;9.376;2023-04-22T02:27:09;97909.03;;;13.43;73.65
13312;BME280;34033;48.672;9.376;2023-04-22T02:29:35;97906.66;;;13.41;74.09
13312;BME280;34033;48.672;9.376;2023-04-22T02:32:00;97909.84;;;13.43;73.74
13312;BME280;34033;48.672;9.376;2023-04-22T02:34:26;97907.84;;;13.44;74.15
13312;BME280;34033;48.672;9.376;2023-04-22T02:36:51;97903.44;;;13.43;73.91
13312;BME280;34033;48.672;9.376;2023-04-22T02:39:16;97903.84;;;13.41;73.74
13312;BME280;34033;48.672;9.376;2023-04-22T02:41:42;97901.50;;;13.36;73.82
13312;BME280;34033;48.672;9.376;2023-04-22T02:44:07;97908.00;;;13.29;74.56
13312;BME280;34033;48.672;9.376;2023-04-22T02:46:33;97907.28;;;13.25;74.74
13312;BME280;34033;48.672;9.376;2023-04-22T02:48:58;97912.13;;;13.21;75.32
13312;BME280;34033;48.672;9.376;2023-04-22T02:51:23;97911.72;;;13.23;75.10
13312;BME280;34033;48.672;9.376;2023-04-22T02:53:48;97910.47;;;13.27;74.99
13312;BME280;34033;48.672;9.376;2023-04-22T02:56:14;97916.44;;;13.29;74.73
13312;BME280;34033;48.672;9.376;2023-04-22T02:58:39;97911.59;;;13.33;74.52
13312;BME280;34033;48.672;9.376;2023-04-22T03:01:04;97923.16;;;13.35;74.08
13312;BME280;34033;48.672;9.376;2023-04-22T03:03:30;97917.94;;;13.38;74.34
13312;BME280;34033;48.672;9.376;2023-04-22T03:05:56;97917.94;;;13.38;73.46
13312;BME280;34033;48.672;9.376;2023-04-22T03:08:21;97916.34;;;13.36;74.02
13312;BME280;34033;48.672;9.376;2023-04-22T03:10:47;97916.44;;;13.29;74.08
13312;BME280;34033;48.672;9.376;2023-04-22T03:13:12;97914.09;;;13.24;74.08
13312;BME280;34033;48.672;9.376;2023-04-22T03:15:41;97911.72;;;13.23;74.73
13312;BME280;34033;48.672;9.376;2023-04-22T03:18:06;97902.94;;;13.21;74.52
13312;BME280;34033;48.672;9.376;2023-04-22T03:20:32;97905.72;;;13.21;74.23
13312;BME280;34033;48.672;9.376;2023-04-22T03:22:57;97902.19;;;13.17;74.60
13312;BME280;34033;48.672;9.376;2023-04-22T03:25:23;97903.81;;;13.14;74.18
13312;BME280;34033;48.672;9.376;2023-04-22T03:27:48;97911.00;;;13.15;74.39
13312;BME280;34033;48.672;9.376;2023-04-22T03:30:13;97912.22;;;13.14;74.10
13312;BME280;34033;48.672;9.376;2023-04-22T03:32:39;97904.22;;;13.13;75.16
13312;BME280;34033;48.672;9.376;2023-04-22T03:35:04;97913.03;;;13.11;74.94
13312;BME280;34033;48.672;9.376;2023-04-22T03:37:30;97915.06;;;13.07;75.20
13312;BME280;34033;48.672;9.376;2023-04-22T03:39:55;97911.13;;;13.05;74.67
13312;BME280;34033;48.672;9.376;2023-04-22T03:42:21;97918.34;;;13.02;74.48
13312;BME280;34033;48.672;9.376;2023-04-22T03:44:46;97925.16;;;13.01;74.90
13312;BME280;34033;48.672;9.376;2023-04-22T03:47:11;97916.00;;;13.01;74.12
13312;BME280;34033;48.672;9.376;2023-04-22T03:49:37;97913.94;;;13.01;74.14
13312;BME280;34033;48.672;9.376;2023-04-22T03:52:02;97916.34;;;13.03;73.81
13312;BME280;34033;48.672;9.376;2023-04-22T03:54:27;97919.19;;;12.99;73.57
13312;BME280;34033;48.672;9.376;2023-04-22T03:56:53;97912.78;;;12.99;73.63
13312;BME280;34033;48.672;9.376;2023-04-22T03:59:18;97903.19;;;12.96;74.12
13312;BME280;34033;48.672;9.376;2023-04-22T04:01:46;97902.44;;;12.92;73.80
13312;BME280;34033;48.672;9.376;2023-04-22T04:04:12;97904.91;;;12.86;74.59
13312;BME280;34033;48.672;9.376;2023-04-22T04:06:37;97909.38;;;12.84;73.88
13312;BME280;34033;48.672;9.376;2023-04-22T04:09:03;97902.63;;;12.78;74.75
13312;BME280;34033;48.672;9.376;2023-04-22T04:11:29;97913.47;;;12.76;74.73
13312;BME280;34033;48.672;9.376;2023-04-22T04:13:55;97914.31;;;12.73;74.53
13312;BME280;34033;48.672;9.376;2023-04-22T04:16:20;97910.25;;;12.77;74.75
13312;BME280;34033;48.672;9.376;2023-04-22T04:18:49;97913.84;;;12.78;73.74
13312;BME280;34033;48.672;9.376;2023-04-22T04:21:14;97915.00;;;12.80;73.62
13312;BME280;34033;48.672;9.376;2023-04-22T04:23:40;97920.19;;;12.82;74.12
13312;BME280;34033;48.672;9.376;2023-04-22T04:26:05;97913.00;;;12.81;73.81
13312;BME280;34033;48.672;9.376;2023-04-22T04:28:30;97913.84;;;12.78;73.21
13312;BME280;34033;48.672;9.376;2023-04-22T04:30:59;97909.03;;;12.78;73.32
13312;BME280;34033;48.672;9.376;2023-04-22T04:33:30;97909.06;;;12.75;73.99
13312;BME280;34033;48.672;9.376;2023-04-22T04:36:01;97907.47;;;12.74;74.20
13312;BME280;34033;48.672;9.376;2023-04-22T04:38:27;97909.06;;;12.75;73.40
13312;BME280;34033;48.672;9.376;2023-04-22T04:40:53;97909.06;;;12.75;73.34
13312;BME280;34033;48.672;9.376;2023-04-22T04:43:19;97916.66;;;12.74;73.15
13312;BME280;34033;48.672;9.376;2023-04-22T04:45:44;97918.69;;;12.74;72.83
13312;BME280;34033;48.672;9.376;2023-04-22T04:48:13;97907.47;;;12.74;73.15
13312;BME280;34033;48.672;9.376;2023-04-22T04:50:40;97913.50;;;12.72;73.51
13312;BME280;34033;48.672;9.376;2023-04-22T04:53:06;97921.47;;;12.74;72.57
13312;BME280;34033;48.672;9.376;2023-04-22T04:55:32;97921.47;;;12.74;72.18
13312;BME280;34033;48.672;9.376;2023-04-22T04:57:57;97923.94;;;12.68;72.56
13312;BME280;34033;48.672;9.376;2023-04-22T05:00:22;97921.19;;;12.65;73.24
13312;BME280;34033;48.672;9.376;2023-04-22T05:02:48;97912.84;;;12.58;73.19
13312;BME280;34033;48.672;9.376;2023-04-22T05:05:13;97919.63;;;12.60;73.12
13312;BME280;34033;48.672;9.376;2023-04-22T05:07:38;97923.59;;;12.63;73.37
13312;BME280;34033;48.672;9.376;2023-04-22T05:10:04;97922.03;;;12.62;73.20
13312;BME280;34033;48.672;9.376;2023-04-22T05:12:29;97930.81;;;12.64;72.90
13312;BME280;34033;48.672;9.376;2023-04-22T05:14:55;97913.16;;;12.67;72.70
13312;BME280;34033;48.672;9.376;2023-04-22T05:17:20;97925.19;;;12.64;72.47
13312;BME280;34033;48.672;9.376;2023-04-22T05:19:45;97923.59;;;12.63;72.39
13312;BME280;34033;48.672;9.376;2023-04-22T05:22:11;97926.41;;;12.63;72.40
13312;BME280;34033;48.672;9.376;2023-04-22T05:24:36;97927.59;;;12.65;72.40
13312;BME280;34033;48.672;9.376;2023-04-22T05:27:02;97923.94;;;12.68;72.00
13312;BME280;34033;48.672;9.376;2023-04-22T05:29:27;97923.94;;;12.68;72.33
13312;BME280;34033;48.672;9.376;2023-04-22T05:31:53;97925.13;;;12.71;72.15
13312;BME280;34033;48.672;9.376;2023-04-22T05:34:18;97927.09;;;12.74;72.04
13312;BME280;34033;48.672;9.376;2023-04-22T05:36:44;97920.25;;;12.78;71.78
13312;BME280;34033;48.672;9.376;2023-04-22T05:39:09;97917.41;;;12.82;71.52
13312;BME280;34033;48.672;9.376;2023-04-22T05:41:34;97928.16;;;12.87;71.41
13312;BME280;34033;48.672;9.376;2023-04-22T05:44:00;97923.69;;;12.93;71.01
13312;BME280;34033;48.672;9.376;2023-04-22T05:46:25;97929.69;;;12.95;70.86
13312;BME280;34033;48.672;9.376;2023-04-22T05:48:51;97924.44;;;12.97;70.68
13312;BME280;34033;48.672;9.376;2023-04-22T05:51:16;97927.22;;;13.01;70.36
13312;BME280;34033;48.672;9.376;2023-04-22T05:53:42;97929.97;;;13.04;70.44
13312;BME280;34033;48.672;9.376;2023-04-22T05:56:07;97937.53;;;13.07;70.58
13312;BME280;34033;48.672;9.376;2023-04-22T05:58:32;97928.69;;;13.12;70.26
13312;BME280;34033;48.672;9.376;2023-04-22T06:00:58;97934.25;;;13.16;69.87
13312;BME280;34033;48.672;9.376;2023-04-22T06:03:23;97934.22;;;13.19;69.63
13312;BME280;34033;48.672;9.376;2023-04-22T06:05:48;97933.38;;;13.22;69.82
13312;BME280;34033;48.672;9.376;2023-04-22T06:08:14;97942.97;;;13.25;68.66
13312;BME280;34033;48.672;9.376;2023-04-22T06:10:39;97941.69;;;13.29;69.41
13312;BME280;34033;48.672;9.376;2023-04-22T06:13:04;97942.81;;;13.35;69.07
13312;BME280;34033;48.672;9.376;2023-04-22T06:15:30;97944.81;;;13.39;68.92
13312;BME280;34033;48.672;9.376;2023-04-22T06:17:55;97944.34;;;13.44;69.36
13312;BME280;34033;48.672;9.376;2023-04-22T06:20:21;97947.03;;;13.51;68.87
13312;BME280;34033;48.672;9.376;2023-04-22T06:22:46;97941.31;;;13.58;68.66
13312;BME280;34033;48.672;9.376;2023-04-22T06:25:11;97944.84;;;13.65;68.38
13312;BME280;34033;48.672;9.376;2023-04-22T06:27:37;97951.13;;;13.73;68.15
13312;BME280;34033;48.672;9.376;2023-04-22T06:30:03;97948.22;;;13.80;67.84
13312;BME280;34033;48.672;9.376;2023-04-22T06:32:29;97940.50;;;13.88;67.29
13312;BME280;34033;48.672;9.376;2023-04-22T06:34:54;97932.38;;;13.93;67.50
13312;BME280;34033;48.672;9.376;2023-04-22T06:37:19;97934.63;;;14.02;67.35
13312;BME280;34033;48.672;9.376;2023-04-22T06:39:45;97933.75;;;14.08;67.03
13312;BME280;34033;48.672;9.376;2023-04-22T06:42:10;97936.44;;;14.15;66.63
13312;BME280;34033;48.672;9.376;2023-04-22T06:44:36;97941.50;;;14.24;65.82
13312;BME280;34033;48.672;9.376;2023-04-22T06:47:01;97939.72;;;14.34;66.34
13312;BME280;34033;48.672;9.376;2023-04-22T06:49:26;97942.88;;;14.39;66.12
13312;BME280;34033;48.672;9.376;2023-04-22T06:51:52;97944.34;;;14.47;65.47
13312;BME280;34033;48.672;9.376;2023-04-22T06:54:17;97944.25;;;14.54;65.82
13312;BME280;34033;48.672;9.376;2023-04-22T06:56:42;97943.28;;;14.61;65.35
13312;BME280;34033;48.672;9.376;2023-04-22T06:59:07;97947.22;;;14.67;64.68
13312;BME280;34033;48.672;9.376;2023-04-22T07:01:33;97943.56;;;14.70;65.00
13312;BME280;34033;48.672;9.376;2023-04-22T07:03:58;97942.69;;;14.73;64.79
13312;BME280;34033;48.672;9.376;2023-04-22T07:06:24;97941.75;;;14.80;64.81
13312;BME280;34033;48.672;9.376;2023-04-22T07:08:49;97934.34;;;14.89;64.43
13312;BME280;34033;48.672;9.376;2023-04-22T07:11:15;97935.41;;;14.95;64.22
13312;BME280;34033;48.672;9.376;2023-04-22T07:13:40;97931.31;;;15.00;64.15
13312;BME280;34033;48.672;9.376;2023-04-22T07:16:06;97929.56;;;15.06;63.91
13312;BME280;34033;48.672;9.376;2023-04-22T07:18:31;97943.16;;;15.11;63.71
13312;BME280;34033;48.672;9.376;2023-04-22T07:20:56;97940.56;;;15.20;63.67
13312;BME280;34033;48.672;9.376;2023-04-22T07:23:22;97934.00;;;15.27;63.01
13312;BME280;34033;48.672;9.376;2023-04-22T07:25:47;97933.50;;;15.32;62.64
13312;BME280;34033;48.672;9.376;2023-04-22T07:28:12;97926.47;;;15.40;62.45
13312;BME280;34033;48.672;9.376;2023-04-22T07:30:38;97930.25;;;15.53;62.07
13312;BME280;34033;48.672;9.376;2023-04-22T07:33:03;97920.84;;;15.60;62.17
13312;BME280;34033;48.672;9.376;2023-04-22T07:35:28;97915.41;;;15.69;61.95
13312;BME280;34033;48.672;9.376;2023-04-22T07:37:55;97904.41;;;15.74;62.14
13312;BME280;34033;48.672;9.376;2023-04-22T07:40:20;97899.75;;;15.84;61.53
13312;BME280;34033;48.672;9.376;2023-04-22T07:42:46;97894.03;;;15.88;61.48
13312;BME280;34033;48.672;9.376;2023-04-22T07:45:11;97898.16;;;15.99;61.39
13312;BME280;34033;48.672;9.376;2023-04-22T07:47:37;97891.50;;;16.09;60.71
13312;BME280;34033;48.672;9.376;2023-04-22T07:50:02;97892.78;;;16.21;60.80
13312;BME280;34033;48.672;9.376;2023-04-22T07:52:28;97910.22;;;16.32;60.63
13312;BME280;34033;48.672;9.376;2023-04-22T07:54:54;97900.38;;;16.40;60.41
13312;BME280;34033;48.672;9.376;2023-04-22T07:57:20;97904.06;;;16.53;58.36
13312;BME280;34033;48.672;9.376;2023-04-22T07:59:47;97911.63;;;16.56;58.15
13312;BME280;34033;48.672;9.376;2023-04-22T08:02:12;97910.41;;;16.57;57.73
13312;BME280;34033;48.672;9.376;2023-04-22T08:04:38;97918.34;;;16.62;57.75
13312;BME280;34033;48.672;9.376;2023-04-22T08:07:03;97915.53;;;16.62;57.88
13312;BME280;34033;48.672;9.376;2023-04-22T08:09:29;97920.09;;;16.73;58.28
13312;BME280;34033;48.672;9.376;2023-04-22T08:11:54;97922.09;;;16.88;57.75
13312;BME280;34033;48.672;9.376;2023-04-22T08:14:19;97914.56;;;16.98;56.76
13312;BME280;34033;48.672;9.376;2023-04-22T08:16:45;97927.25;;;17.06;56.76
13312;BME280;34033;48.672;9.376;2023-04-22T08:19:10;97923.22;;;16.91;56.27
13312;BME280;34033;48.672;9.376;2023-04-22T08:21:35;97922.69;;;16.96;56.00
13312;BME280;34033;48.672;9.376;2023-04-22T08:24:01;97924.81;;;16.92;55.36
13312;BME280;34033;48.672;9.376;2023-04-22T08:26:27;97924.53;;;17.02;55.59
13312;BME280;34033;48.672;9.376;2023-04-22T08:28:52;97926.44;;;17.05;55.93
13312;BME280;34033;48.672;9.376;2023-04-22T08:31:18;97927.06;;;17.13;56.06
13312;BME280;34033;48.672;9.376;2023-04-22T08:33:43;97928.09;;;17.19;55.45
13312;BME280;34033;48.672;9.376;2023-04-22T08:36:08;97930.00;;;17.22;55.88
13312;BME280;34033;48.672;9.376;2023-04-22T08:38:35;97916.78;;;17.19;55.71
13312;BME280;34033;48.672;9.376;2023-04-22T08:41:02;97919.81;;;17.12;55.49
13312;BME280;34033;48.672;9.376;2023-04-22T08:43:29;97919.81;;;17.12;55.52
13312;BME280;34033;48.672;9.376;2023-04-22T08:45:56;97928.63;;;17.14;55.71
13312;BME280;34033;48.672;9.376;2023-04-22T08:48:22;97918.91;;;17.15;55.39
13312;BME280;34033;48.672;9.376;2023-04-22T08:50:48;97913.84;;;17.23;55.61
13312;BME280;34033;48.672;9.376;2023-04-22T08:53:14;97919.31;;;17.30;55.01
13312;BME280;34033;48.672;9.376;2023-04-22T08:55:42;97911.31;;;17.41;55.01
13312;BME280;34033;48.672;9.376;2023-04-22T08:58:09;97918.22;;;17.52;55.04
13312;BME280;34033;48.672;9.376;2023-04-22T09:00:36;97906.28;;;17.61;54.84
13312;BME280;34033;48.672;9.376;2023-04-22T09:03:02;97900.84;;;17.67;54.05
13312;BME280;34033;48.672;9.376;2023-04-22T09:05:32;97909.13;;;17.74;54.38
13312;BME280;34033;48.672;9.376;2023-04-22T09:07:58;97909.66;;;17.81;53.74
13312;BME280;34033;48.672;9.376;2023-04-22T09:10:24;97900.19;;;17.88;53.67
13312;BME280;34033;48.672;9.376;2023-04-22T09:12:50;97894.66;;;17.97;53.19
13312;BME280;34033;48.672;9.376;2023-04-22T09:15:15;97890.34;;;18.05;53.23
13312;BME280;34033;48.672;9.376;2023-04-22T09:17:41;97885.13;;;18.16;52.83
13312;BME280;34033;48.672;9.376;2023-04-22T09:20:07;97878.31;;;18.26;51.68
13312;BME280;34033;48.672;9.376;2023-04-22T09:22:45;97881.25;;;18.36;51.60
13312;BME280;34033;48.672;9.376;2023-04-22T09:25:18;97885.63;;;18.49;51.07
13312;BME280;34033;48.672;9.376;2023-04-22T09:27:51;97880.97;;;18.68;49.82
13312;BME280;34033;48.672;9.376;2023-04-22T09:30:22;97874.53;;;18.89;48.39
13312;BME280;34033;48.672;9.376;2023-04-22T09:32:52;97878.16;;;19.11;47.92
13312;BME280;34033;48.672;9.376;2023-04-22T09:35:39;97885.88;;;19.33;47.65
13312;BME280;34033;48.672;9.376;2023-04-22T09:38:07;97883.00;;;19.45;46.81
13312;BME280;34033;48.672;9.376;2023-04-22T09:40:34;97875.66;;;19.57;47.09
13312;BME280;34033;48.672;9.376;2023-04-22T09:43:01;97872.41;;;19.68;46.37
13312;BME280;34033;48.672;9.376;2023-04-22T09:45:53;97871.19;;;19.78;45.78
13312;BME280;34033;48.672;9.376;2023-04-22T09:48:23;97868.66;;;19.80;45.71
13312;BME280;34033;48.672;9.376;2023-04-22T09:50:50;97855.25;;;19.80;45.57
13312;BME280;34033;48.672;9.376;2023-04-22T09:53:17;97852.47;;;19.89;45.73
13312;BME280;34033;48.672;9.376;2023-04-22T09:55:49;97853.81;;;20.07;45.03
13312;BME280;34033;48.672;9.376;2023-04-22T09:58:17;97857.63;;;20.22;45.31
13312;BME280;34033;48.672;9.376;2023-04-22T10:00:47;97853.44;;;20.45;45.59
13312;BME280;34033;48.672;9.376;2023-04-22T10:03:13;97855.97;;;20.70;45.97
13312;BME280;34033;48.672;9.376;2023-04-22T10:05:38;97858.34;;;20.90;45.31
13312;BME280;34033;48.672;9.376;2023-04-22T10:08:07;97847.78;;;20.99;44.60
13312;BME280;34033;48.672;9.376;2023-04-22T10:10:33;97840.97;;;20.97;42.84
13312;BME280;34033;48.672;9.376;2023-04-22T10:12:59;97837.06;;;20.94;42.67
13312;BME280;34033;48.672;9.376;2023-04-22T10:15:26;97837.19;;;20.91;42.80
13312;BME280;34033;48.672;9.376;2023-04-22T10:17:56;97826.31;;;20.80;43.00
13312;BME280;34033;48.672;9.376;2023-04-22T10:20:23;97834.69;;;20.84;42.97
13312;BME280;34033;48.672;9.376;2023-04-22T10:22:52;97837.19;;;20.91;42.96
13312;BME280;34033;48.672;9.376;2023-04-22T10:25:22;97837.50;;;21.02;43.15
13312;BME280;34033;48.672;9.376;2023-04-22T10:28:03;97831.50;;;21.09;42.72
13312;BME280;34033;48.672;9.376;2023-04-22T10:30:30;97831.50;;;21.09;42.28
13312;BME280;34033;48.672;9.376;2023-04-22T10:36:06;97829.31;;;20.86;44.14
13312;BME280;34033;48.672;9.376;2023-04-22T10:41:04;97826.44;;;21.31;43.87
13312;BME280;34033;48.672;9.376;2023-04-22T10:43:54;97823.88;;;21.42;43.45
13312;BME280;34033;48.672;9.376;2023-04-22T10:48:57;97806.66;;;21.79;41.60
13312;BME280;34033;48.672;9.376;2023-04-22T10:51:50;97799.59;;;21.74;41.58
13312;BME280;34033;48.672;9.376;2023-04-22T10:57:17;97801.72;;;21.97;41.78
13312;BME280;34033;48.672;9.376;2023-04-22T10:59:47;97793.91;;;22.07;41.08
13312;BME280;34033;48.672;9.376;2023-04-22T11:02:14;97788.19;;;22.16;41.01
13312;BME280;34033;48.672;9.376;2023-04-22T11:04:40;97789.72;;;22.17;40.86
13312;BME280;34033;48.672;9.376;2023-04-22T11:09:59;97794.28;;;22.48;40.81
13312;BME280;34033;48.672;9.376;2023-04-22T11:15:06;97801.19;;;22.94;39.95
13312;BME280;34033;48.672;9.376;2023-04-22T11:17:32;97799.03;;;23.04;39.48
13312;BME280;34033;48.672;9.376;2023-04-22T11:19:58;97802.47;;;22.93;38.82
13312;BME280;34033;48.672;9.376;2023-04-22T11:22:24;97793.25;;;22.98;38.97
13312;BME280;34033;48.672;9.376;2023-04-22T11:24:57;97797.25;;;23.06;37.69
13312;BME280;34033;48.672;9.376;2023-04-22T11:27:24;97786.06;;;23.17;38.33
13312;BME280;34033;48.672;9.376;2023-04-22T11:30:18;97784.69;;;23.13;37.84
13312;BME280;34033;48.672;9.376;2023-04-22T11:35:21;97785.50;;;23.43;33.64
13312;BME280;34033;48.672;9.376;2023-04-22T11:37:50;97781.75;;;23.51;33.69
13312;BME280;34033;48.672;9.376;2023-04-22T11:42:51;97769.69;;;23.91;34.54
13312;BME280;34033;48.672;9.376;2023-04-22T11:45:17;97772.09;;;23.98;34.13
13312;BME280;34033;48.672;9.376;2023-04-22T11:47:43;97775.13;;;24.09;33.37
13312;BME280;34033;48.672;9.376;2023-04-22T11:50:11;97768.13;;;24.10;32.19
13312;BME280;34033;48.672;9.376;2023-04-22T11:55:22;97780.81;;;24.24;33.95
13312;BME280;34033;48.672;9.376;2023-04-22T11:57:57;97778.03;;;24.50;33.73
13312;BME280;34033;48.672;9.376;2023-04-22T12:00:28;97772.66;;;24.78;32.69
13312;BME280;34033;48.672;9.376;2023-04-22T12:03:05;97774.56;;;24.86;32.08
13312;BME280;34033;48.672;9.376;2023-04-22T12:05:36;97767.09;;;24.89;31.20
13312;BME280;34033;48.672;9.376;2023-04-22T12:08:07;97765.22;;;24.86;31.40
13312;BME280;34033;48.672;9.376;2023-04-22T12:10:38;97767.16;;;24.95;31.21
13312;BME280;34033;48.672;9.376;2023-04-22T12:13:04;97765.94;;;24.61;29.50
13312;BME280;34033;48.672;9.376;2023-04-22T12:15:43;97755.59;;;24.63;29.22
13312;BME280;34033;48.672;9.376;2023-04-22T12:18:09;97767.47;;;24.56;29.93
13312;BME280;34033;48.672;9.376;2023-04-22T12:20:37;97758.47;;;24.63;29.88
13312;BME280;34033;48.672;9.376;2023-04-22T12:23:03;97759.88;;;24.73;29.32
13312;BME280;34033;48.672;9.376;2023-04-22T12:25:29;97759.00;;;24.67;29.73
13312;BME280;34033;48.672;9.376;2023-04-22T12:27:57;97751.00;;;24.91;30.11
13312;BME280;34033;48.672;9.376;2023-04-22T12:30:23;97741.91;;;25.19;30.07
13312;BME280;34033;48.672;9.376;2023-04-22T12:32:49;97747.88;;;25.47;29.58
13312;BME280;34033;48.672;9.376;2023-04-22T12:35:14;97757.13;;;25.62;28.74
13312;BME280;34033;48.672;9.376;2023-04-22T12:37:39;97745.22;;;25.43;28.63
13312;BME280;34033;48.672;9.376;2023-04-22T12:40:05;97750.00;;;25.52;29.01
13312;BME280;34033;48.672;9.376;2023-04-22T12:42:31;97750.16;;;25.11;29.32
13312;BME280;34033;48.672;9.376;2023-04-22T12:44:57;97747.13;;;24.95;29.01
13312;BME280;34033;48.672;9.376;2023-04-22T12:47:23;97747.78;;;24.84;29.00
13312;BME280;34033;48.672;9.376;2023-04-22T12:49:48;97754.72;;;24.77;29.38
13312;BME280;34033;48.672;9.376;2023-04-22T12:52:14;97747.59;;;24.67;29.63
13312;BME280;34033;48.672;9.376;2023-04-22T12:54:39;97744.66;;;25.08;30.91
13312;BME280;34033;48.672;9.376;2023-04-22T12:57:04;97753.50;;;25.36;29.15
13312;BME280;34033;48.672;9.376;2023-04-22T12:59:30;97748.75;;;25.58;28.93
13312;BME280;34033;48.672;9.376;2023-04-22T13:01:55;97742.00;;;25.98;29.69
13312;BME280;34033;48.672;9.376;2023-04-22T13:04:21;97749.69;;;26.18;27.44
13312;BME280;34033;48.672;9.376;2023-04-22T13:06:46;97738.78;;;26.22;27.97
13312;BME280;34033;48.672;9.376;2023-04-22T13:09:14;97745.34;;;26.28;28.36
13312;BME280;34033;48.672;9.376;2023-04-22T13:11:40;97742.13;;;26.21;28.11
13312;BME280;34033;48.672;9.376;2023-04-22T13:14:05;97739.88;;;26.30;29.16
13312;BME280;34033;48.672;9.376;2023-04-22T13:16:30;97745.59;;;26.30;29.29
13312;BME280;34033;48.672;9.376;2023-04-22T13:18:56;97746.63;;;25.85;28.58
13312;BME280;34033;48.672;9.376;2023-04-22T13:21:21;97734.97;;;25.94;29.13